createdAt,value
2023-05-11T00:02:21.958Z,6.38
2023-05-11T00:04:48.730Z,5.85
2023-05-11T00:07:15.633Z,6.22
2023-05-11T00:09:42.408Z,6.10
2023-05-11T00:12:09.148Z,5.47
2023-05-11T00:14:35.980Z,6.10
2023-05-11T00:17:02.700Z,6.80
2023-05-11T00:19:31.711Z,6.47
2023-05-11T00:21:59.361Z,6.67
2023-05-11T00:24:26.481Z,5.63
2023-05-11T00:26:53.445Z,6.20
2023-05-11T00:29:20.196Z,6.22
2023-05-11T00:31:48.319Z,6.18
2023-05-11T00:34:17.708Z,6.55
2023-05-11T00:36:45.554Z,5.60
2023-05-11T00:39:12.737Z,5.65
2023-05-11T00:41:39.646Z,5.70
2023-05-11T00:44:06.855Z,6.43
2023-05-11T00:46:33.753Z,7.65
2023-05-11T00:49:00.614Z,7.35
2023-05-11T00:51:28.065Z,6.18
2023-05-11T00:53:54.820Z,6.65
2023-05-11T00:56:22.085Z,6.00
2023-05-11T00:58:49.097Z,5.90
2023-05-11T01:01:18.063Z,5.57
2023-05-11T01:03:46.347Z,5.65
2023-05-11T01:06:44.692Z,5.32
2023-05-11T01:09:47.025Z,4.65
2023-05-11T01:12:33.866Z,5.28
2023-05-11T01:15:28.606Z,5.22
2023-05-11T01:18:11.897Z,5.75
2023-05-11T01:20:40.082Z,5.38
2023-05-11T01:23:28.581Z,5.75
2023-05-11T01:26:04.486Z,5.10
2023-05-11T01:29:06.602Z,4.82
2023-05-11T01:31:34.869Z,4.47
2023-05-11T01:34:05.432Z,4.85
2023-05-11T01:36:39.242Z,4.90
2023-05-11T01:39:10.132Z,4.82
2023-05-11T01:41:40.456Z,5.10
2023-05-11T01:44:10.684Z,5.40
2023-05-11T01:46:38.740Z,5.30
2023-05-11T01:49:10.036Z,5.50
2023-05-11T01:51:38.568Z,5.00
2023-05-11T01:54:08.810Z,6.95
2023-05-11T01:56:37.453Z,5.60
2023-05-11T01:59:05.168Z,5.40
2023-05-11T02:01:35.864Z,4.60
2023-05-11T02:04:05.040Z,4.15
2023-05-11T02:06:34.531Z,4.28
2023-05-11T02:09:03.365Z,5.72
2023-05-11T02:11:31.243Z,4.75
2023-05-11T02:13:59.373Z,4.80
2023-05-11T02:16:28.529Z,4.05
2023-05-11T02:18:57.436Z,4.60
2023-05-11T02:21:26.573Z,4.45
2023-05-11T02:23:54.477Z,5.15
2023-05-11T02:26:22.018Z,5.13
2023-05-11T02:28:48.742Z,5.30
2023-05-11T02:31:27.802Z,4.80
2023-05-11T02:33:59.806Z,5.30
2023-05-11T02:36:29.732Z,4.40
2023-05-11T02:41:30.784Z,4.03
2023-05-11T02:44:03.036Z,4.73
2023-05-11T02:46:35.666Z,5.03
2023-05-11T02:49:05.922Z,5.25
2023-05-11T02:51:41.422Z,4.68
2023-05-11T02:54:12.546Z,5.85
2023-05-11T02:56:39.591Z,4.90
2023-05-11T02:59:06.547Z,4.88
2023-05-11T03:01:34.104Z,5.18
2023-05-11T03:04:04.882Z,4.63
2023-05-11T03:06:32.360Z,5.05
2023-05-11T03:08:59.706Z,5.30
2023-05-11T03:11:26.738Z,5.88
2023-05-11T03:13:53.816Z,7.30
2023-05-11T03:16:21.702Z,7.82
2023-05-11T03:18:49.930Z,8.52
2023-05-11T03:21:21.505Z,9.52
2023-05-11T03:23:49.532Z,9.05
2023-05-11T03:26:18.886Z,9.63
2023-05-11T03:28:47.193Z,9.35
2023-05-11T03:31:14.109Z,8.68
2023-05-11T03:33:40.922Z,9.68
2023-05-11T03:36:10.745Z,10.27
2023-05-11T03:38:39.180Z,9.15
2023-05-11T03:41:06.050Z,10.82
2023-05-11T03:43:35.999Z,10.70
2023-05-11T03:48:32.418Z,11.98
2023-05-11T03:50:59.481Z,11.50
2023-05-11T03:53:26.673Z,10.38
2023-05-11T03:55:53.486Z,11.43
2023-05-11T03:58:20.524Z,11.68
2023-05-11T04:00:47.299Z,10.32
2023-05-11T04:03:14.393Z,10.50
2023-05-11T04:05:41.514Z,10.52
2023-05-11T04:08:08.466Z,10.95
2023-05-11T04:10:35.196Z,12.77
2023-05-11T04:13:01.954Z,10.23
2023-05-11T04:15:28.833Z,11.57
2023-05-11T04:17:56.000Z,11.13
2023-05-11T04:20:22.803Z,10.60
2023-05-11T04:22:49.604Z,10.02
2023-05-11T04:25:16.714Z,9.85
2023-05-11T04:27:43.413Z,9.43
2023-05-11T04:30:10.477Z,11.27
2023-05-11T04:32:37.273Z,10.02
2023-05-11T04:35:04.326Z,12.40
2023-05-11T04:37:31.802Z,9.98
2023-05-11T04:39:58.555Z,10.48
2023-05-11T04:42:25.357Z,9.77
2023-05-11T04:44:55.129Z,9.43
2023-05-11T04:47:21.976Z,8.93
2023-05-11T04:49:48.631Z,9.10
2023-05-11T04:52:15.498Z,9.50
2023-05-11T04:54:42.501Z,9.15
2023-05-11T04:57:09.251Z,9.57
2023-05-11T04:59:36.120Z,10.18
2023-05-11T05:02:02.977Z,8.93
2023-05-11T05:04:29.805Z,9.63
2023-05-11T05:06:56.578Z,8.82
2023-05-11T05:09:23.330Z,8.18
2023-05-11T05:11:50.125Z,9.55
2023-05-11T05:14:16.878Z,8.60
2023-05-11T05:16:43.643Z,8.38
2023-05-11T05:19:12.891Z,7.15
2023-05-11T05:21:40.840Z,7.88
2023-05-11T05:24:11.226Z,7.10
2023-05-11T05:26:38.238Z,6.95
2023-05-11T05:29:06.658Z,6.43
2023-05-11T05:31:33.539Z,5.93
2023-05-11T05:34:00.342Z,5.78
2023-05-11T05:36:27.137Z,5.68
2023-05-11T05:38:53.940Z,5.60
2023-05-11T05:41:23.216Z,5.53
2023-05-11T05:43:51.661Z,5.07
2023-05-11T05:46:18.678Z,5.82
2023-05-11T05:48:45.445Z,5.47
2023-05-11T05:51:12.188Z,6.13
2023-05-11T05:53:39.051Z,5.65
2023-05-11T05:56:06.231Z,5.72
2023-05-11T05:58:32.944Z,5.28
2023-05-11T06:01:01.020Z,5.95
2023-05-11T06:03:29.361Z,5.53
2023-05-11T06:05:56.610Z,5.18
2023-05-11T06:08:23.335Z,4.90
2023-05-11T06:10:49.983Z,5.10
2023-05-11T06:13:16.899Z,5.25
2023-05-11T06:15:44.018Z,5.45
2023-05-11T06:18:11.028Z,4.97
2023-05-11T06:20:37.787Z,5.18
2023-05-11T06:23:04.552Z,5.47
2023-05-11T06:25:35.343Z,5.20
2023-05-11T06:28:02.239Z,5.38
2023-05-11T06:30:29.720Z,5.07
2023-05-11T06:32:56.433Z,5.65
2023-05-11T06:35:23.261Z,4.70
2023-05-11T06:37:49.966Z,5.20
2023-05-11T06:40:16.889Z,5.03
2023-05-11T06:42:44.005Z,5.97
2023-05-11T06:45:11.174Z,5.07
2023-05-11T06:47:38.007Z,5.63
2023-05-11T06:50:05.337Z,5.00
2023-05-11T06:52:32.147Z,4.85
2023-05-11T06:54:58.837Z,5.05
2023-05-11T06:57:25.540Z,5.20
2023-05-11T06:59:52.314Z,5.10
2023-05-11T07:02:19.021Z,5.00
2023-05-11T07:04:45.808Z,4.85
2023-05-11T07:07:13.167Z,4.97
2023-05-11T07:09:42.024Z,4.70
2023-05-11T07:12:08.911Z,4.65
2023-05-11T07:14:35.644Z,5.05
2023-05-11T07:17:02.411Z,4.45
2023-05-11T07:19:30.096Z,4.25
2023-05-11T07:21:56.825Z,4.50
2023-05-11T07:24:23.616Z,4.50
2023-05-11T07:26:51.085Z,4.35
2023-05-11T07:29:17.828Z,3.95
2023-05-11T07:31:45.414Z,4.43
2023-05-11T07:34:12.184Z,4.25
2023-05-11T07:36:38.978Z,3.80
2023-05-11T07:39:05.956Z,3.90
2023-05-11T07:41:32.695Z,3.60
2023-05-11T07:44:01.240Z,2.88
2023-05-11T07:46:28.290Z,3.00
2023-05-11T07:49:07.250Z,3.00
2023-05-11T07:51:42.087Z,2.80
2023-05-11T07:54:08.963Z,2.70
2023-05-11T07:56:35.751Z,2.38
2023-05-11T07:59:02.681Z,2.72
2023-05-11T08:01:29.484Z,2.72
2023-05-11T08:03:56.326Z,2.70
2023-05-11T08:06:23.056Z,2.55
2023-05-11T08:08:49.785Z,2.40
2023-05-11T08:11:16.567Z,2.72
2023-05-11T08:13:43.230Z,2.47
2023-05-11T08:16:10.063Z,2.22
2023-05-11T08:18:37.313Z,2.13
2023-05-11T08:21:04.336Z,2.30
2023-05-11T08:23:31.786Z,2.00
2023-05-11T08:25:58.552Z,2.05
2023-05-11T08:28:25.694Z,2.22
2023-05-11T08:30:59.452Z,2.17
2023-05-11T08:33:37.407Z,2.70
2023-05-11T08:36:06.405Z,2.00
2023-05-11T08:38:33.648Z,2.17
2023-05-11T08:41:01.965Z,2.20
2023-05-11T08:43:30.490Z,2.20
2023-05-11T08:46:02.918Z,2.00
2023-05-11T08:48:30.963Z,2.10
2023-05-11T08:50:59.373Z,2.05
2023-05-11T08:53:26.142Z,2.00
2023-05-11T08:55:55.487Z,2.25
2023-05-11T08:58:22.961Z,2.20
2023-05-11T09:00:50.258Z,2.10
2023-05-11T09:03:20.210Z,1.85
2023-05-11T09:05:47.843Z,2.17
2023-05-11T09:08:17.600Z,2.05
2023-05-11T09:13:11.625Z,2.13
2023-05-11T09:15:38.534Z,2.30
2023-05-11T09:18:05.827Z,2.10
2023-05-11T09:20:34.033Z,1.67
2023-05-11T09:23:01.435Z,2.35
2023-05-11T09:25:33.248Z,2.38
2023-05-11T09:28:00.720Z,2.20
2023-05-11T09:30:27.792Z,2.10
2023-05-11T09:33:02.660Z,1.90
2023-05-11T09:35:32.034Z,2.10
2023-05-11T09:38:05.135Z,2.63
2023-05-11T09:40:34.913Z,2.28
2023-05-11T09:43:21.606Z,2.05
2023-05-11T09:45:50.202Z,1.83
2023-05-11T09:48:17.090Z,2.22
2023-05-11T09:50:44.194Z,2.28
2023-05-11T09:53:11.215Z,2.15
2023-05-11T09:55:38.279Z,2.33
2023-05-11T09:58:05.006Z,2.50
2023-05-11T10:00:32.344Z,2.40
2023-05-11T10:03:07.839Z,2.55
2023-05-11T10:05:36.198Z,2.30
2023-05-11T10:08:05.170Z,2.40
2023-05-11T10:10:35.347Z,2.25
2023-05-11T10:13:03.337Z,2.28
2023-05-11T10:15:32.504Z,2.28
2023-05-11T10:18:01.372Z,2.22
2023-05-11T10:20:28.320Z,2.60
2023-05-11T10:22:56.313Z,2.55
2023-05-11T10:25:25.036Z,2.35
2023-05-11T10:27:52.304Z,2.67
2023-05-11T10:30:19.895Z,2.78
2023-05-11T10:32:47.431Z,2.50
2023-05-11T10:35:14.465Z,2.53
2023-05-11T10:37:43.120Z,2.90
2023-05-11T10:40:10.950Z,2.53
2023-05-11T10:42:43.662Z,2.88
2023-05-11T10:45:41.114Z,2.80
2023-05-11T10:48:16.914Z,2.67
2023-05-11T10:51:11.484Z,2.53
2023-05-11T10:53:46.805Z,2.72
2023-05-11T10:56:43.539Z,2.70
2023-05-11T10:59:44.239Z,2.95
2023-05-11T11:02:11.173Z,2.92
2023-05-11T11:04:49.729Z,2.28
2023-05-11T11:07:18.800Z,2.47
2023-05-11T11:09:51.839Z,2.67
2023-05-11T11:12:20.390Z,2.92
2023-05-11T11:15:07.690Z,2.45
2023-05-11T11:17:36.521Z,2.70
2023-05-11T11:20:08.596Z,3.00
2023-05-11T11:22:35.520Z,2.75
2023-05-11T11:25:05.860Z,2.45
2023-05-11T11:27:42.017Z,2.97
2023-05-11T11:30:25.862Z,2.80
2023-05-11T11:32:54.909Z,3.40
2023-05-11T11:35:43.025Z,2.92
2023-05-11T11:38:12.012Z,2.88
2023-05-11T11:40:50.651Z,2.72
2023-05-11T11:43:26.097Z,2.72
2023-05-11T11:46:00.129Z,2.90
2023-05-11T11:48:36.877Z,2.38
2023-05-11T11:51:08.771Z,2.40
2023-05-11T11:53:39.679Z,2.92
2023-05-11T11:56:29.092Z,3.03
2023-05-11T11:58:55.873Z,2.38
2023-05-11T12:01:26.811Z,2.50
2023-05-11T12:04:18.208Z,2.83
2023-05-11T12:06:52.092Z,3.13
2023-05-11T12:09:19.508Z,2.70
2023-05-11T12:11:47.975Z,2.30
2023-05-11T12:14:15.736Z,2.72
2023-05-11T12:16:42.466Z,2.63
2023-05-11T12:19:09.294Z,2.60
2023-05-11T12:21:36.127Z,2.60
2023-05-11T12:24:05.277Z,2.60
2023-05-11T12:26:34.469Z,2.90
2023-05-11T12:29:11.383Z,2.72
2023-05-11T12:31:46.603Z,3.03
2023-05-11T12:34:18.142Z,2.60
2023-05-11T12:36:50.062Z,2.78
2023-05-11T12:39:18.984Z,2.72
2023-05-11T12:41:47.629Z,2.33
2023-05-11T12:44:16.255Z,2.67
2023-05-11T12:46:44.639Z,2.55
2023-05-11T12:49:14.112Z,2.42
2023-05-11T12:52:11.205Z,2.30
2023-05-11T12:54:51.374Z,2.20
2023-05-11T12:57:27.418Z,1.83
2023-05-11T13:00:08.148Z,2.30
2023-05-11T13:02:35.377Z,2.20
2023-05-11T13:05:15.047Z,2.55
2023-05-11T13:07:42.199Z,2.50
2023-05-11T13:10:09.168Z,2.60
2023-05-11T13:12:48.205Z,2.40
2023-05-11T13:15:14.932Z,1.83
2023-05-11T13:17:43.287Z,1.75
2023-05-11T13:20:27.441Z,2.53
2023-05-11T13:23:08.801Z,1.98
2023-05-11T13:25:51.689Z,1.98
2023-05-11T13:28:20.767Z,1.95
2023-05-11T13:30:48.221Z,1.95
2023-05-11T13:33:15.172Z,2.10
2023-05-11T13:35:43.358Z,1.88
2023-05-11T13:38:11.323Z,2.00
2023-05-11T13:40:39.541Z,1.80
2023-05-11T13:43:07.539Z,1.80
2023-05-11T13:45:36.477Z,2.22
2023-05-11T13:48:03.719Z,1.80
2023-05-11T13:50:30.912Z,1.80
2023-05-11T13:52:57.669Z,2.15
2023-05-11T13:55:24.559Z,1.88
2023-05-11T13:57:51.864Z,2.08
2023-05-11T14:00:19.820Z,2.30
2023-05-11T14:02:48.338Z,1.92
2023-05-11T14:05:15.180Z,1.52
2023-05-11T14:07:47.624Z,2.00
2023-05-11T14:10:15.825Z,2.10
2023-05-11T14:12:42.896Z,2.00
2023-05-11T14:15:10.766Z,2.08
2023-05-11T14:17:37.753Z,2.03
2023-05-11T14:20:06.192Z,2.30
2023-05-11T14:22:32.930Z,2.13
2023-05-11T14:25:00.185Z,1.85
2023-05-11T14:27:27.227Z,2.10
2023-05-11T14:29:55.077Z,1.88
2023-05-11T14:32:21.891Z,2.15
2023-05-11T14:34:48.896Z,2.13
2023-05-11T14:37:24.280Z,2.10
2023-05-11T14:39:51.187Z,2.10
2023-05-11T14:42:18.552Z,2.22
2023-05-11T14:44:46.405Z,2.35
2023-05-11T14:47:13.174Z,2.13
2023-05-11T14:49:39.871Z,2.25
2023-05-11T14:52:06.826Z,2.28
2023-05-11T14:54:35.184Z,2.08
2023-05-11T14:57:01.976Z,2.22
2023-05-11T14:59:28.873Z,2.42
2023-05-11T15:01:55.698Z,2.20
2023-05-11T15:04:22.849Z,2.53
2023-05-11T15:06:49.696Z,2.20
2023-05-11T15:09:16.490Z,2.60
2023-05-11T15:11:43.149Z,2.70
2023-05-11T15:14:10.703Z,2.72
2023-05-11T15:16:38.143Z,2.60
2023-05-11T15:19:05.625Z,2.47
2023-05-11T15:21:32.746Z,2.17
2023-05-11T15:23:59.506Z,2.38
2023-05-11T15:26:26.207Z,2.13
2023-05-11T15:28:52.940Z,2.40
2023-05-11T15:31:20.005Z,2.22
2023-05-11T15:33:46.927Z,2.55
2023-05-11T15:36:15.346Z,2.40
2023-05-11T15:38:43.223Z,2.17
2023-05-11T15:41:10.135Z,2.42
2023-05-11T15:43:36.972Z,2.75
2023-05-11T15:46:05.084Z,2.30
2023-05-11T15:48:32.215Z,2.40
2023-05-11T15:51:03.097Z,2.40
2023-05-11T15:53:29.964Z,2.40
2023-05-11T15:55:57.470Z,2.33
2023-05-11T15:58:24.249Z,2.42
2023-05-11T16:00:51.367Z,2.60
2023-05-11T16:03:20.142Z,2.40
2023-05-11T16:05:47.111Z,2.30
2023-05-11T16:08:14.090Z,2.10
2023-05-11T16:10:41.065Z,2.38
2023-05-11T16:13:08.337Z,2.63
2023-05-11T16:15:35.016Z,2.40
2023-05-11T16:18:04.852Z,2.42
2023-05-11T16:20:32.336Z,2.38
2023-05-11T16:22:59.153Z,2.42
2023-05-11T16:25:29.405Z,2.40
2023-05-11T16:27:57.082Z,2.58
2023-05-11T16:30:25.469Z,2.50
2023-05-11T16:32:54.110Z,2.58
2023-05-11T16:35:21.040Z,2.63
2023-05-11T16:37:48.376Z,2.35
2023-05-11T16:40:21.970Z,3.10
2023-05-11T16:42:49.202Z,3.83
2023-05-11T16:45:16.997Z,3.80
2023-05-11T16:47:46.750Z,2.92
2023-05-11T16:52:42.427Z,3.13
2023-05-11T16:55:09.815Z,2.78
2023-05-11T16:57:36.732Z,2.60
2023-05-11T17:00:03.713Z,2.78
2023-05-11T17:02:31.097Z,2.92
2023-05-11T17:04:57.765Z,2.80
2023-05-11T17:07:25.593Z,2.92
2023-05-11T17:10:08.510Z,3.00
2023-05-11T17:12:45.322Z,2.85
2023-05-11T17:15:12.717Z,2.92
2023-05-11T17:17:39.934Z,2.85
2023-05-11T17:20:08.073Z,3.00
2023-05-11T17:22:35.390Z,3.10
2023-05-11T17:25:04.421Z,2.88
2023-05-11T17:27:32.162Z,2.95
2023-05-11T17:29:59.872Z,2.85
2023-05-11T17:32:27.067Z,3.08
2023-05-11T17:34:54.159Z,3.17
2023-05-11T17:37:31.393Z,3.05
2023-05-11T17:40:02.810Z,3.60
2023-05-11T17:42:30.964Z,3.75
2023-05-11T17:44:57.988Z,3.50
2023-05-11T17:47:24.814Z,3.15
2023-05-11T17:49:51.572Z,3.70
2023-05-11T17:52:18.354Z,3.05
2023-05-11T17:54:45.238Z,3.50
2023-05-11T17:57:12.024Z,3.33
2023-05-11T17:59:38.793Z,3.47
2023-05-11T18:02:05.485Z,3.75
2023-05-11T18:04:34.910Z,3.28
2023-05-11T18:07:04.120Z,3.70
2023-05-11T18:09:31.059Z,3.63
2023-05-11T18:11:57.765Z,3.63
2023-05-11T18:14:24.585Z,3.30
2023-05-11T18:16:53.199Z,3.30
2023-05-11T18:19:20.008Z,3.63
2023-05-11T18:21:46.765Z,3.80
2023-05-11T18:24:17.810Z,3.35
2023-05-11T18:26:44.771Z,3.83
2023-05-11T18:29:11.673Z,4.00
2023-05-11T18:31:38.855Z,4.13
2023-05-11T18:34:05.929Z,4.18
2023-05-11T18:36:33.393Z,4.28
2023-05-11T18:39:00.173Z,3.80
2023-05-11T18:41:28.304Z,3.85
2023-05-11T18:43:55.070Z,4.00
2023-05-11T18:46:21.946Z,3.42
2023-05-11T18:48:52.987Z,3.97
2023-05-11T18:51:23.146Z,3.97
2023-05-11T18:53:50.901Z,3.63
2023-05-11T18:56:18.221Z,3.88
2023-05-11T18:58:46.630Z,4.75
2023-05-11T19:01:13.492Z,4.53
2023-05-11T19:03:40.388Z,5.15
2023-05-11T19:06:07.791Z,6.80
2023-05-11T19:08:35.175Z,6.35
2023-05-11T19:11:09.644Z,6.78
2023-05-11T19:13:37.303Z,6.68
2023-05-11T19:16:04.928Z,5.53
2023-05-11T19:18:35.448Z,5.10
2023-05-11T19:21:06.200Z,5.07
2023-05-11T19:23:33.674Z,4.50
2023-05-11T19:26:00.826Z,4.60
2023-05-11T19:28:30.584Z,4.85
2023-05-11T19:31:05.573Z,4.75
2023-05-11T19:33:33.546Z,4.43
2023-05-11T19:36:01.041Z,4.22
2023-05-11T19:38:27.886Z,4.93
2023-05-11T19:40:54.885Z,4.63
2023-05-11T19:43:23.775Z,4.75
2023-05-11T19:45:50.877Z,4.82
2023-05-11T19:48:17.971Z,4.50
2023-05-11T19:50:45.046Z,4.57
2023-05-11T19:53:11.780Z,4.72
2023-05-11T19:55:40.411Z,4.20
2023-05-11T19:58:07.965Z,4.50
2023-05-11T20:00:35.039Z,4.68
2023-05-11T20:03:02.013Z,4.68
2023-05-11T20:05:28.893Z,4.45
2023-05-11T20:07:55.875Z,5.13
2023-05-11T20:10:22.837Z,4.82
2023-05-11T20:12:49.585Z,4.85
2023-05-11T20:15:16.312Z,4.72
2023-05-11T20:17:43.429Z,4.68
2023-05-11T20:20:10.631Z,4.70
2023-05-11T20:22:38.199Z,5.35
2023-05-11T20:25:11.669Z,4.90
2023-05-11T20:27:44.483Z,4.50
2023-05-11T20:30:11.744Z,4.55
2023-05-11T20:32:38.462Z,4.95
2023-05-11T20:35:05.952Z,5.03
2023-05-11T20:37:32.738Z,4.78
2023-05-11T20:39:59.614Z,4.53
2023-05-11T20:42:27.214Z,4.60
2023-05-11T20:44:54.030Z,5.38
2023-05-11T20:47:20.844Z,5.15
2023-05-11T20:49:50.434Z,4.93
2023-05-11T20:52:17.972Z,5.55
2023-05-11T20:54:44.781Z,4.80
2023-05-11T20:57:11.615Z,4.85
2023-05-11T21:02:08.042Z,5.03
2023-05-11T21:04:36.182Z,5.78
2023-05-11T21:07:02.871Z,4.95
2023-05-11T21:09:29.591Z,5.00
2023-05-11T21:11:56.283Z,5.75
2023-05-11T21:14:23.129Z,4.95
2023-05-11T21:16:49.956Z,4.93
2023-05-11T21:19:16.890Z,5.32
2023-05-11T21:21:43.819Z,5.35
2023-05-11T21:24:10.718Z,5.65
2023-05-11T21:26:37.452Z,5.53
2023-05-11T21:29:04.141Z,5.72
2023-05-11T21:31:30.924Z,5.30
2023-05-11T21:33:57.933Z,5.40
2023-05-11T21:36:24.626Z,6.55
2023-05-11T21:38:51.407Z,6.05
2023-05-11T21:41:18.594Z,5.38
2023-05-11T21:43:45.612Z,5.57
2023-05-11T21:46:12.831Z,5.43
2023-05-11T21:48:39.614Z,5.60
2023-05-11T21:51:06.462Z,5.38
2023-05-11T21:53:33.141Z,5.45
2023-05-11T21:55:59.857Z,5.60
2023-05-11T21:58:27.624Z,5.50
2023-05-11T22:00:55.176Z,4.80
2023-05-11T22:03:22.102Z,5.18
2023-05-11T22:05:48.914Z,5.15
2023-05-11T22:08:16.047Z,5.45
2023-05-11T22:10:43.462Z,5.95
2023-05-11T22:13:10.487Z,5.82
2023-05-11T22:15:37.707Z,5.93
2023-05-11T22:18:05.211Z,5.68
2023-05-11T22:20:32.205Z,5.72
2023-05-11T22:22:59.553Z,6.45
2023-05-11T22:25:26.684Z,6.20
2023-05-11T22:27:53.459Z,6.53
2023-05-11T22:30:20.743Z,6.50
2023-05-11T22:32:47.764Z,6.20
2023-05-11T22:35:14.629Z,6.00
2023-05-11T22:37:41.470Z,5.93
2023-05-11T22:40:08.926Z,6.85
2023-05-11T22:42:35.749Z,6.72
2023-05-11T22:45:02.556Z,7.63
2023-05-11T22:47:29.573Z,7.60
2023-05-11T22:49:56.463Z,8.15
2023-05-11T22:52:23.263Z,7.10
2023-05-11T22:54:58.675Z,7.82
2023-05-11T22:57:28.857Z,7.40
2023-05-11T22:59:55.614Z,8.10
2023-05-11T23:03:31.560Z,7.80
2023-05-11T23:05:58.404Z,7.28
2023-05-11T23:08:26.737Z,7.22
2023-05-11T23:10:53.508Z,6.65
2023-05-11T23:13:20.278Z,6.20
2023-05-11T23:15:47.192Z,6.35
2023-05-11T23:18:13.974Z,6.88
2023-05-11T23:27:00.077Z,6.60
2023-05-11T23:29:28.086Z,5.82
2023-05-11T23:31:55.940Z,6.10
2023-05-11T23:34:23.549Z,7.35
2023-05-11T23:36:53.239Z,6.20
2023-05-11T23:39:20.481Z,5.90
2023-05-11T23:41:47.193Z,5.38
2023-05-11T23:44:13.897Z,5.75
2023-05-11T23:46:40.609Z,5.70
2023-05-11T23:49:07.952Z,5.63
2023-05-11T23:51:34.769Z,5.63
2023-05-11T23:54:01.567Z,5.60
2023-05-11T23:56:28.322Z,5.63
2023-05-11T23:58:55.054Z,5.57
